Terminal Aerodrome Forecast
Issued by NWS Twin Cities, MN

Home | Current Version | Previous Version | Text Only | Print | Product List | Glossary On
Versions: 1 2 3 4 5 6 7 8 9 10 11 12 13
000
FTUS43 KMPX 210500
TAFEAU
TAF
KEAU 210520Z 2106/2206 VRB02KT 6SM BR VCSH SCT050 BKN070
     FM210800 VRB02KT 3SM BR VCSH FEW005 SCT070
      TEMPO 2110/2113 1/2SM -SHRA FG VV005
     FM211330 30010KT P6SM SCT100
     FM211500 32013G20KT P6SM SCT120
     FM220000 33010KT P6SM SKC=

USA.gov is the U.S. government's official web portal to all federal, state and local government web resources and services.